Time;durP1;ratioP1;P1;durP2;ratioP2;P2;SDS_P1;SDS_P2;PMS_P1;PMS_P2;Temp;Humidity;BMP_temperature;BMP_pressure;BME280_temperature;BME280_humidity;BME280_pressure;Samples;Min_cycle;Max_cycle;Signal;HPM_P1;HPM_P2
2023/09/16 00:02:09;;;;;;;;;;;15.60;99.90;;;;;;5083591;28;19984;-76
2023/09/16 00:04:35;;;;;;;;;;;15.60;99.90;;;;;;5083208;28;19930;-75
2023/09/16 00:07:02;;;;;;;;;;;15.60;99.90;;;;;;5082081;28;20116;-75
2023/09/16 00:09:30;;;;;;;;;;;15.60;99.90;;;;;;5083618;28;19921;-75
2023/09/16 00:11:57;;;;;;;;;;;15.60;99.90;;;;;;5085079;28;19963;-75
2023/09/16 00:14:24;;;;;;;;;;;15.50;99.90;;;;;;5094085;28;19984;-75
2023/09/16 00:16:52;;;;;;;;;;;15.40;99.90;;;;;;5095360;28;19927;-76
2023/09/16 00:19:18;;;;;;;;;;;15.40;99.90;;;;;;5087394;28;19927;-76
2023/09/16 00:21:46;;;;;;;;;;;15.40;99.90;;;;;;5087658;28;20164;-75
2023/09/16 00:24:14;;;;;;;;;;;15.40;99.90;;;;;;5087044;28;20144;-76
2023/09/16 00:26:42;;;;;;;;;;;15.30;99.90;;;;;;5087645;28;19928;-76
2023/09/16 00:29:09;;;;;;;;;;;15.30;99.90;;;;;;5087371;28;19962;-76
2023/09/16 00:31:36;;;;;;;;;;;15.30;99.90;;;;;;5094615;28;19958;-76
2023/09/16 00:34:02;;;;;;;;;;;15.20;99.90;;;;;;5088066;28;19962;-75
2023/09/16 00:36:29;;;;;;;;;;;15.20;99.90;;;;;;5090209;28;19979;-76
2023/09/16 00:38:56;;;;;;;;;;;15.20;99.90;;;;;;5087126;28;19920;-76
2023/09/16 00:41:23;;;;;;;;;;;15.10;99.90;;;;;;5087219;28;19962;-75
2023/09/16 00:43:51;;;;;;;;;;;15.10;99.90;;;;;;5092090;28;19921;-76
2023/09/16 00:46:17;;;;;;;;;;;15.10;99.90;;;;;;5086787;28;19956;-75
2023/09/16 00:48:45;;;;;;;;;;;15.00;99.90;;;;;;5086793;28;19920;-76
2023/09/16 00:51:13;;;;;;;;;;;15.00;99.90;;;;;;5084115;28;19992;-76
2023/09/16 00:53:40;;;;;;;;;;;14.90;99.90;;;;;;5087061;28;19924;-76
2023/09/16 00:56:07;;;;;;;;;;;15.00;99.90;;;;;;5086488;28;19958;-76
2023/09/16 00:58:34;;;;;;;;;;;14.90;99.90;;;;;;5085808;28;19952;-76
2023/09/16 01:01:03;;;;;;;;;;;14.90;99.90;;;;;;5085648;28;19920;-76
2023/09/16 01:03:29;;;;;;;;;;;14.90;99.90;;;;;;5085960;28;19984;-76
2023/09/16 01:05:56;;;;;;;;;;;14.90;99.90;;;;;;5090190;28;19984;-76
2023/09/16 01:08:23;;;;;;;;;;;14.70;99.90;;;;;;5085667;28;19955;-76
2023/09/16 01:10:50;;;;;;;;;;;14.70;99.90;;;;;;5089015;28;19983;-76
2023/09/16 01:13:17;;;;;;;;;;;14.70;99.90;;;;;;5085432;28;19962;-75
2023/09/16 01:15:47;;;;;;;;;;;14.60;99.90;;;;;;5085351;28;20012;-75
2023/09/16 01:18:19;;;;;;;;;;;14.50;99.90;;;;;;5083161;28;20030;-75
2023/09/16 01:20:46;;;;;;;;;;;14.60;99.90;;;;;;5085606;28;19926;-76
2023/09/16 01:23:13;;;;;;;;;;;14.50;99.90;;;;;;5085149;28;19988;-76
2023/09/16 01:25:41;;;;;;;;;;;14.50;99.90;;;;;;5084523;28;20156;-76
2023/09/16 01:28:08;;;;;;;;;;;14.50;99.90;;;;;;5085069;28;19991;-75
2023/09/16 01:30:37;;;;;;;;;;;14.50;99.90;;;;;;5080882;28;19920;-76
2023/09/16 01:33:09;;;;;;;;;;;14.50;99.90;;;;;;5085152;28;19983;-76
2023/09/16 01:35:38;;;;;;;;;;;14.50;99.90;;;;;;5080325;28;19920;-76
2023/09/16 01:38:06;;;;;;;;;;;14.50;99.90;;;;;;5084995;28;19956;-75
2023/09/16 01:40:33;;;;;;;;;;;14.40;99.90;;;;;;5085336;28;19979;-75
2023/09/16 01:43:02;;;;;;;;;;;14.40;99.90;;;;;;5088281;28;19987;-75
2023/09/16 01:45:39;;;;;;;;;;;14.40;99.90;;;;;;5089480;28;19920;-75
2023/09/16 01:48:06;;;;;;;;;;;14.30;99.90;;;;;;5088242;28;19966;-75
2023/09/16 01:50:33;;;;;;;;;;;14.30;99.90;;;;;;5089417;28;19920;-76
2023/09/16 01:53:01;;;;;;;;;;;14.30;99.90;;;;;;5089806;28;19920;-76
2023/09/16 01:55:27;;;;;;;;;;;14.30;99.90;;;;;;5084139;28;19988;-76
2023/09/16 01:57:54;;;;;;;;;;;14.20;99.90;;;;;;5084920;28;19959;-76
2023/09/16 02:00:22;;;;;;;;;;;14.20;99.90;;;;;;5089424;28;20186;-76
2023/09/16 02:02:48;;;;;;;;;;;14.20;99.90;;;;;;5088144;28;19987;-76
2023/09/16 02:05:15;;;;;;;;;;;14.10;99.90;;;;;;5084196;28;19920;-76
2023/09/16 02:07:42;;;;;;;;;;;14.10;99.90;;;;;;5084716;28;19991;-76
2023/09/16 02:10:09;;;;;;;;;;;14.00;99.90;;;;;;5083578;28;19982;-76
2023/09/16 02:12:36;;;;;;;;;;;14.00;99.90;;;;;;5084388;28;19939;-77
2023/09/16 02:15:04;;;;;;;;;;;13.90;99.90;;;;;;5084075;28;19924;-76
2023/09/16 02:17:33;;;;;;;;;;;13.90;99.90;;;;;;5089628;28;20131;-76
2023/09/16 02:19:59;;;;;;;;;;;13.90;99.90;;;;;;5084919;28;20149;-76
2023/09/16 02:22:26;;;;;;;;;;;13.90;99.90;;;;;;5086837;28;20268;-76
2023/09/16 02:24:52;;;;;;;;;;;13.90;99.90;;;;;;5093790;28;19981;-76
2023/09/16 02:27:19;;;;;;;;;;;13.80;99.90;;;;;;5085599;28;20218;-76
2023/09/16 02:29:48;;;;;;;;;;;13.80;99.90;;;;;;5087444;28;19920;-77
2023/09/16 02:32:14;;;;;;;;;;;13.80;99.90;;;;;;5087575;28;19920;-76
2023/09/16 02:34:42;;;;;;;;;;;13.80;99.90;;;;;;5083287;28;20195;-77
2023/09/16 02:37:09;;;;;;;;;;;13.80;99.90;;;;;;5084042;28;19987;-75
2023/09/16 02:39:35;;;;;;;;;;;13.80;99.90;;;;;;5083787;28;19990;-76
2023/09/16 02:42:02;;;;;;;;;;;13.80;99.90;;;;;;5083742;28;19927;-75
2023/09/16 02:44:29;;;;;;;;;;;13.80;99.90;;;;;;5088339;28;20004;-75
2023/09/16 02:46:56;;;;;;;;;;;13.70;99.90;;;;;;5083481;28;19978;-75
2023/09/16 02:49:22;;;;;;;;;;;13.80;99.90;;;;;;5083125;28;19931;-75
2023/09/16 02:51:51;;;;;;;;;;;13.70;99.90;;;;;;5083793;28;19920;-76
2023/09/16 02:54:17;;;;;;;;;;;13.70;99.90;;;;;;5084563;28;19992;-76
2023/09/16 02:56:44;;;;;;;;;;;13.60;99.90;;;;;;5087387;28;19921;-76
2023/09/16 02:59:11;;;;;;;;;;;13.60;99.90;;;;;;5080489;28;19977;-76
2023/09/16 03:01:37;;;;;;;;;;;13.60;99.90;;;;;;5083944;28;19947;-75
2023/09/16 03:04:04;;;;;;;;;;;13.50;99.90;;;;;;5083232;28;19995;-75
2023/09/16 03:06:31;;;;;;;;;;;13.60;99.90;;;;;;5083231;28;20133;-75
2023/09/16 03:08:59;;;;;;;;;;;13.60;99.90;;;;;;5083742;28;19939;-76
2023/09/16 03:11:26;;;;;;;;;;;13.50;99.90;;;;;;5085882;28;20262;-76
2023/09/16 03:13:53;;;;;;;;;;;13.50;99.90;;;;;;5091633;28;19921;-76
2023/09/16 03:16:20;;;;;;;;;;;13.40;99.90;;;;;;5082685;28;20260;-76
2023/09/16 03:18:47;;;;;;;;;;;13.40;99.90;;;;;;5082880;28;19920;-76
2023/09/16 03:21:15;;;;;;;;;;;13.40;99.90;;;;;;5083219;28;19921;-76
2023/09/16 03:23:42;;;;;;;;;;;13.40;99.90;;;;;;5083289;28;20173;-76
2023/09/16 03:26:10;;;;;;;;;;;13.40;99.90;;;;;;5082564;28;20186;-76
2023/09/16 03:28:39;;;;;;;;;;;13.30;99.90;;;;;;5083323;28;19969;-76
2023/09/16 03:31:05;;;;;;;;;;;13.30;99.90;;;;;;5083702;28;20173;-77
2023/09/16 03:33:32;;;;;;;;;;;13.30;99.90;;;;;;5088494;28;19921;-77
2023/09/16 03:35:59;;;;;;;;;;;13.30;99.90;;;;;;5092952;28;19991;-75
2023/09/16 03:38:30;;;;;;;;;;;13.20;99.90;;;;;;5083204;28;19991;-75
2023/09/16 03:40:57;;;;;;;;;;;13.20;99.90;;;;;;5082902;28;20256;-76
2023/09/16 03:43:25;;;;;;;;;;;13.20;99.90;;;;;;5086358;28;19982;-76
2023/09/16 03:45:51;;;;;;;;;;;13.10;99.90;;;;;;5084620;28;20007;-76
2023/09/16 03:48:18;;;;;;;;;;;13.10;99.90;;;;;;5082795;28;19926;-76
2023/09/16 03:50:46;;;;;;;;;;;13.10;99.90;;;;;;5082712;28;19920;-76
2023/09/16 03:53:12;;;;;;;;;;;13.10;99.90;;;;;;5082821;28;19920;-76
2023/09/16 03:55:39;;;;;;;;;;;13.10;99.90;;;;;;5082130;28;20233;-76
2023/09/16 03:58:06;;;;;;;;;;;13.10;99.90;;;;;;5082931;28;19979;-76
2023/09/16 04:00:34;;;;;;;;;;;13.10;99.90;;;;;;5082621;28;19920;-76
2023/09/16 04:03:00;;;;;;;;;;;13.10;99.90;;;;;;5083514;28;20256;-76
2023/09/16 04:05:27;;;;;;;;;;;13.10;99.90;;;;;;5083139;28;19924;-76
2023/09/16 04:07:53;;;;;;;;;;;13.00;99.90;;;;;;5083791;28;19927;-76
2023/09/16 04:10:20;;;;;;;;;;;13.10;99.90;;;;;;5082924;28;19921;-76
2023/09/16 04:12:47;;;;;;;;;;;13.10;99.90;;;;;;5083799;28;19958;-76
2023/09/16 04:15:14;;;;;;;;;;;13.10;99.90;;;;;;5083067;28;19920;-76
2023/09/16 04:17:42;;;;;;;;;;;13.10;99.90;;;;;;5085895;28;19979;-76
2023/09/16 04:20:09;;;;;;;;;;;13.10;99.90;;;;;;5083233;28;20251;-75
2023/09/16 04:22:36;;;;;;;;;;;13.10;99.90;;;;;;5083516;28;19994;-76
2023/09/16 04:25:03;;;;;;;;;;;13.10;99.90;;;;;;5082921;28;19927;-76
2023/09/16 04:27:29;;;;;;;;;;;13.00;99.90;;;;;;5083146;28;19963;-76
2023/09/16 04:29:56;;;;;;;;;;;13.00;99.90;;;;;;5083233;28;19992;-76
2023/09/16 04:32:23;;;;;;;;;;;12.90;99.90;;;;;;5083521;28;19927;-76
2023/09/16 04:34:51;;;;;;;;;;;12.90;99.90;;;;;;5082942;28;20163;-76
2023/09/16 04:37:17;;;;;;;;;;;12.90;99.90;;;;;;5083244;28;19946;-76
2023/09/16 04:39:44;;;;;;;;;;;12.90;99.90;;;;;;5083455;28;19920;-76
2023/09/16 04:42:10;;;;;;;;;;;12.80;99.90;;;;;;5079790;28;19927;-76
2023/09/16 04:44:38;;;;;;;;;;;12.80;99.90;;;;;;5082956;28;19927;-76
2023/09/16 04:47:05;;;;;;;;;;;12.80;99.90;;;;;;5083271;28;19951;-75
2023/09/16 04:49:32;;;;;;;;;;;12.80;99.90;;;;;;5083215;28;19927;-75
2023/09/16 04:52:00;;;;;;;;;;;12.70;99.90;;;;;;5083271;28;20087;-76
2023/09/16 04:54:28;;;;;;;;;;;12.70;99.90;;;;;;5082965;28;20007;-76
2023/09/16 04:56:57;;;;;;;;;;;12.70;99.90;;;;;;5084317;28;19927;-76
2023/09/16 04:59:23;;;;;;;;;;;12.70;99.90;;;;;;5086476;28;19984;-76
2023/09/16 05:01:51;;;;;;;;;;;12.70;99.90;;;;;;5086957;28;19920;-77
2023/09/16 05:04:18;;;;;;;;;;;12.70;99.90;;;;;;5086378;28;19956;-77
2023/09/16 05:06:44;;;;;;;;;;;12.70;99.90;;;;;;5086743;28;20159;-76
2023/09/16 05:09:12;;;;;;;;;;;12.70;99.90;;;;;;5086916;28;20264;-76
2023/09/16 05:11:39;;;;;;;;;;;12.70;99.90;;;;;;5090229;28;19983;-76
2023/09/16 05:14:06;;;;;;;;;;;12.70;99.90;;;;;;5086095;28;19920;-75
2023/09/16 05:16:32;;;;;;;;;;;12.60;99.90;;;;;;5100131;28;19920;-76
2023/09/16 05:18:59;;;;;;;;;;;12.60;99.90;;;;;;5087781;28;19955;-77
2023/09/16 05:21:25;;;;;;;;;;;12.60;99.90;;;;;;5086471;28;19920;-76
2023/09/16 05:23:52;;;;;;;;;;;12.60;99.90;;;;;;5090455;28;19926;-76
2023/09/16 05:26:20;;;;;;;;;;;12.50;99.90;;;;;;5094560;28;19956;-76
2023/09/16 05:28:47;;;;;;;;;;;12.50;99.90;;;;;;5086533;28;19955;-76
2023/09/16 05:31:13;;;;;;;;;;;12.60;99.90;;;;;;5086444;28;19928;-76
2023/09/16 05:33:40;;;;;;;;;;;12.60;99.90;;;;;;5086124;28;20121;-77
2023/09/16 05:36:07;;;;;;;;;;;12.60;99.90;;;;;;5085560;28;19936;-77
2023/09/16 05:38:33;;;;;;;;;;;12.50;99.90;;;;;;5081254;28;19992;-76
2023/09/16 05:41:00;;;;;;;;;;;12.60;99.90;;;;;;5086249;28;20169;-77
2023/09/16 05:43:28;;;;;;;;;;;12.60;99.90;;;;;;5086776;28;19924;-77
2023/09/16 05:45:55;;;;;;;;;;;12.60;99.90;;;;;;5085581;28;19991;-76
2023/09/16 05:48:21;;;;;;;;;;;12.60;99.90;;;;;;5085763;28;20265;-76
2023/09/16 05:50:54;;;;;;;;;;;12.60;99.90;;;;;;5086112;28;19920;-77
2023/09/16 05:53:21;;;;;;;;;;;12.60;99.90;;;;;;5086097;28;19921;-76
2023/09/16 05:55:47;;;;;;;;;;;12.70;99.90;;;;;;5085226;28;19948;-76
2023/09/16 05:58:14;;;;;;;;;;;12.70;99.90;;;;;;5085537;28;19992;-76
2023/09/16 06:00:42;;;;;;;;;;;12.70;99.90;;;;;;5085905;28;19920;-76
2023/09/16 06:03:09;;;;;;;;;;;12.80;99.90;;;;;;5085797;28;19920;-76
2023/09/16 06:05:36;;;;;;;;;;;12.70;99.90;;;;;;5088324;28;19982;-76
2023/09/16 06:08:03;;;;;;;;;;;12.80;99.90;;;;;;5084781;28;19921;-76
2023/09/16 06:10:29;;;;;;;;;;;12.80;99.90;;;;;;5085434;28;20209;-76
2023/09/16 06:12:56;;;;;;;;;;;12.90;99.90;;;;;;5085630;28;19929;-76
2023/09/16 06:15:23;;;;;;;;;;;12.90;99.90;;;;;;5084824;28;19927;-76
2023/09/16 06:17:50;;;;;;;;;;;13.00;99.90;;;;;;5084709;28;19956;-76
2023/09/16 06:20:17;;;;;;;;;;;13.00;99.90;;;;;;5093953;28;19991;-76
2023/09/16 06:22:44;;;;;;;;;;;13.00;99.90;;;;;;5085542;28;19987;-76
2023/09/16 06:25:10;;;;;;;;;;;13.10;99.90;;;;;;5084957;28;19983;-76
2023/09/16 06:27:37;;;;;;;;;;;13.20;99.90;;;;;;5083952;28;19921;-76
2023/09/16 06:30:04;;;;;;;;;;;13.30;99.90;;;;;;5083296;28;19980;-75
2023/09/16 06:32:31;;;;;;;;;;;13.30;99.90;;;;;;5084910;28;19963;-75
2023/09/16 06:34:59;;;;;;;;;;;13.50;99.90;;;;;;5087828;28;20273;-75
2023/09/16 06:37:25;;;;;;;;;;;13.60;99.90;;;;;;5083906;28;19956;-74
2023/09/16 06:39:52;;;;;;;;;;;13.70;99.90;;;;;;5082525;28;19956;-75
2023/09/16 06:42:18;;;;;;;;;;;13.80;99.90;;;;;;5088855;28;19952;-73
2023/09/16 06:44:49;;;;;;;;;;;13.90;99.90;;;;;;5084182;28;20214;-73
2023/09/16 06:47:16;;;;;;;;;;;14.00;99.90;;;;;;5084621;28;19920;-75
2023/09/16 06:49:43;;;;;;;;;;;14.00;99.90;;;;;;5084296;28;19988;-75
2023/09/16 06:52:11;;;;;;;;;;;14.10;99.90;;;;;;5087751;28;20240;-75
2023/09/16 06:54:37;;;;;;;;;;;14.20;99.90;;;;;;5083916;28;19920;-75
2023/09/16 06:57:04;;;;;;;;;;;14.30;99.90;;;;;;5084675;28;19954;-75
2023/09/16 06:59:31;;;;;;;;;;;14.40;99.90;;;;;;5083949;28;19920;-76
2023/09/16 07:01:57;;;;;;;;;;;14.40;99.90;;;;;;5084699;28;19979;-76
2023/09/16 07:04:25;;;;;;;;;;;14.50;99.90;;;;;;5084153;28;19991;-76
2023/09/16 07:06:52;;;;;;;;;;;14.50;99.90;;;;;;5084454;28;19964;-76
2023/09/16 07:09:20;;;;;;;;;;;14.60;99.90;;;;;;5084444;28;19980;-75
2023/09/16 07:11:47;;;;;;;;;;;14.70;99.90;;;;;;5083910;28;20233;-75
2023/09/16 07:14:13;;;;;;;;;;;14.80;99.90;;;;;;5082706;28;19996;-76
2023/09/16 07:16:40;;;;;;;;;;;14.80;99.90;;;;;;5084328;28;20121;-76
2023/09/16 07:19:07;;;;;;;;;;;15.00;99.90;;;;;;5084090;28;19920;-76
2023/09/16 07:21:34;;;;;;;;;;;15.10;99.90;;;;;;5084265;28;19952;-75
2023/09/16 07:24:01;;;;;;;;;;;15.10;99.90;;;;;;5083669;28;19927;-75
2023/09/16 07:26:29;;;;;;;;;;;15.30;99.90;;;;;;5083388;28;20237;-76
2023/09/16 07:28:57;;;;;;;;;;;15.40;99.90;;;;;;5083965;28;19979;-75
2023/09/16 07:31:24;;;;;;;;;;;15.50;99.90;;;;;;5084734;28;19951;-75
2023/09/16 07:33:51;;;;;;;;;;;15.50;99.90;;;;;;5088395;28;19952;-75
2023/09/16 07:36:17;;;;;;;;;;;15.60;99.90;;;;;;5088920;28;19952;-75
2023/09/16 07:38:44;;;;;;;;;;;15.70;99.90;;;;;;5083808;28;19976;-75
2023/09/16 07:41:11;;;;;;;;;;;15.80;99.90;;;;;;5083822;28;19977;-76
2023/09/16 07:43:39;;;;;;;;;;;16.00;99.90;;;;;;5083725;28;19962;-75
2023/09/16 07:46:05;;;;;;;;;;;16.10;99.90;;;;;;5081940;28;20281;-75
2023/09/16 07:48:32;;;;;;;;;;;16.20;99.90;;;;;;5083681;28;19951;-76
2023/09/16 07:50:59;;;;;;;;;;;16.20;99.90;;;;;;5083800;28;19988;-76
2023/09/16 07:53:25;;;;;;;;;;;16.30;99.90;;;;;;5083623;28;20180;-74
2023/09/16 07:55:52;;;;;;;;;;;16.40;99.90;;;;;;5083030;28;20035;-75
2023/09/16 07:58:18;;;;;;;;;;;16.40;99.90;;;;;;5083586;28;19920;-76
2023/09/16 08:00:46;;;;;;;;;;;16.50;99.90;;;;;;5083156;28;19992;-75
2023/09/16 08:03:13;;;;;;;;;;;16.60;99.90;;;;;;5083655;28;19947;-75
2023/09/16 08:05:40;;;;;;;;;;;16.70;99.90;;;;;;5082854;28;20036;-75
2023/09/16 08:08:06;;;;;;;;;;;16.90;99.90;;;;;;5083454;28;19920;-76
2023/09/16 08:10:33;;;;;;;;;;;17.00;99.90;;;;;;5082567;28;19995;-75
2023/09/16 08:12:59;;;;;;;;;;;17.10;99.90;;;;;;5083297;28;19992;-75
2023/09/16 08:15:26;;;;;;;;;;;17.20;99.90;;;;;;5082988;28;20000;-75
2023/09/16 08:17:55;;;;;;;;;;;17.20;99.90;;;;;;5083147;28;19921;-76
2023/09/16 08:20:23;;;;;;;;;;;17.40;99.90;;;;;;5083193;28;20409;-77
2023/09/16 08:22:49;;;;;;;;;;;17.50;99.90;;;;;;5083215;28;20258;-75
2023/09/16 08:25:16;;;;;;;;;;;17.60;99.90;;;;;;5082812;28;19983;-74
2023/09/16 08:27:43;;;;;;;;;;;17.70;99.90;;;;;;5083305;28;20091;-75
2023/09/16 08:30:10;;;;;;;;;;;17.90;99.90;;;;;;5083136;28;20245;-75
2023/09/16 08:32:38;;;;;;;;;;;18.10;99.90;;;;;;5088088;28;19991;-75
2023/09/16 08:35:07;;;;;;;;;;;18.20;99.90;;;;;;5097481;28;20182;-76
2023/09/16 08:37:34;;;;;;;;;;;18.30;99.90;;;;;;5091999;28;19920;-74
2023/09/16 08:40:01;;;;;;;;;;;18.40;99.90;;;;;;5087137;28;19983;-77
2023/09/16 08:42:33;;;;;;;;;;;18.40;99.90;;;;;;5090150;28;20127;-76
2023/09/16 08:45:00;;;;;;;;;;;18.50;99.90;;;;;;5095023;28;19920;-76
2023/09/16 08:47:29;;;;;;;;;;;18.60;99.90;;;;;;5086997;28;20243;-76
2023/09/16 08:50:00;;;;;;;;;;;18.60;99.90;;;;;;5086869;28;19962;-76
2023/09/16 08:52:33;;;;;;;;;;;18.70;99.90;;;;;;5089070;28;19987;-76
2023/09/16 08:55:00;;;;;;;;;;;18.80;99.90;;;;;;5089263;28;20189;-75
2023/09/16 08:57:27;;;;;;;;;;;18.80;99.90;;;;;;5087223;28;19991;-76
2023/09/16 08:59:54;;;;;;;;;;;18.90;99.90;;;;;;5086026;28;19959;-75
2023/09/16 09:02:21;;;;;;;;;;;19.00;99.90;;;;;;5085950;28;19927;-75
2023/09/16 09:04:47;;;;;;;;;;;19.10;99.90;;;;;;5085537;28;19987;-75
2023/09/16 09:07:15;;;;;;;;;;;19.20;99.90;;;;;;5091379;28;19927;-75
2023/09/16 09:09:43;;;;;;;;;;;19.20;99.90;;;;;;5086059;28;19951;-75
2023/09/16 09:12:10;;;;;;;;;;;19.30;99.90;;;;;;5086103;28;20149;-74
2023/09/16 09:14:37;;;;;;;;;;;19.40;99.90;;;;;;5085293;28;19926;-75
2023/09/16 09:17:04;;;;;;;;;;;19.50;99.90;;;;;;5086221;28;19978;-76
2023/09/16 09:19:30;;;;;;;;;;;19.60;99.90;;;;;;5085040;28;19924;-76
2023/09/16 09:21:58;;;;;;;;;;;19.70;99.90;;;;;;5088153;28;20265;-76
2023/09/16 09:24:25;;;;;;;;;;;19.80;99.90;;;;;;5087013;28;20260;-73
2023/09/16 09:26:52;;;;;;;;;;;19.90;99.90;;;;;;5080781;28;19992;-76
2023/09/16 09:29:19;;;;;;;;;;;20.00;99.90;;;;;;5082622;28;20059;-76
2023/09/16 09:31:46;;;;;;;;;;;20.10;99.90;;;;;;5082510;28;19921;-74
2023/09/16 09:34:16;;;;;;;;;;;20.30;99.90;;;;;;5084715;28;19924;-75
2023/09/16 09:36:43;;;;;;;;;;;20.30;99.90;;;;;;5085030;28;19928;-76
2023/09/16 09:39:10;;;;;;;;;;;20.40;99.90;;;;;;5085068;28;19921;-76
2023/09/16 09:41:42;;;;;;;;;;;20.50;99.90;;;;;;5085111;28;19947;-74
2023/09/16 09:44:11;;;;;;;;;;;20.60;99.90;;;;;;5083506;28;19929;-77
2023/09/16 09:46:37;;;;;;;;;;;20.70;99.90;;;;;;5087887;28;19928;-75
2023/09/16 09:49:05;;;;;;;;;;;20.90;99.90;;;;;;5084771;28;19920;-76
2023/09/16 09:51:31;;;;;;;;;;;21.00;99.90;;;;;;5085439;28;19943;-77
2023/09/16 09:53:58;;;;;;;;;;;21.10;99.90;;;;;;5087758;28;19952;-75
2023/09/16 09:56:25;;;;;;;;;;;21.20;99.90;;;;;;5084292;28;19987;-75
2023/09/16 09:58:51;;;;;;;;;;;21.30;99.90;;;;;;5081956;28;19947;-75
2023/09/16 10:01:19;;;;;;;;;;;21.40;99.90;;;;;;5084876;28;20176;-75
2023/09/16 10:03:47;;;;;;;;;;;21.50;99.90;;;;;;5086236;28;20252;-75
2023/09/16 10:06:15;;;;;;;;;;;21.60;99.90;;;;;;5087542;28;19971;-75
2023/09/16 10:08:41;;;;;;;;;;;21.70;99.90;;;;;;5084740;28;19924;-75
2023/09/16 10:11:08;;;;;;;;;;;21.80;99.90;;;;;;5084974;28;19954;-76
2023/09/16 10:13:35;;;;;;;;;;;22.00;99.90;;;;;;5087551;28;19934;-72
2023/09/16 10:16:02;;;;;;;;;;;22.00;99.90;;;;;;5090549;28;19978;-74
2023/09/16 10:18:30;;;;;;;;;;;22.20;99.90;;;;;;5084002;28;19952;-75
2023/09/16 10:20:57;;;;;;;;;;;22.30;99.90;;;;;;5083676;28;19920;-73
2023/09/16 10:23:23;;;;;;;;;;;22.40;99.90;;;;;;5086032;28;19924;-73
2023/09/16 10:25:51;;;;;;;;;;;22.40;99.90;;;;;;5083782;28;19958;-75
2023/09/16 10:28:18;;;;;;;;;;;22.40;99.90;;;;;;5084418;28;19928;-74
2023/09/16 10:30:46;;;;;;;;;;;22.60;99.90;;;;;;5083575;28;19921;-76
2023/09/16 10:33:13;;;;;;;;;;;22.70;99.90;;;;;;5086251;28;19920;-76
2023/09/16 10:35:56;;;;;;;;;;;22.80;99.90;;;;;;5088590;28;19980;-77
2023/09/16 10:38:23;;;;;;;;;;;22.90;99.90;;;;;;5084227;28;20233;-76
2023/09/16 10:40:51;;;;;;;;;;;23.00;99.90;;;;;;5084821;28;19952;-74
2023/09/16 10:43:18;;;;;;;;;;;23.20;99.90;;;;;;5086835;28;19978;-75
2023/09/16 10:45:45;;;;;;;;;;;23.30;99.90;;;;;;5089401;28;20229;-76
2023/09/16 10:48:25;;;;;;;;;;;23.40;99.90;;;;;;5084891;28;20126;-77
2023/09/16 10:51:14;;;;;;;;;;;23.50;99.90;;;;;;5095991;28;19951;-76
2023/09/16 10:53:42;;;;;;;;;;;23.60;99.90;;;;;;5081687;28;20022;-76
2023/09/16 10:56:13;;;;;;;;;;;23.70;99.90;;;;;;5082925;28;19947;-74
2023/09/16 10:58:43;;;;;;;;;;;23.90;99.90;;;;;;5084081;28;19920;-75
2023/09/16 11:01:13;;;;;;;;;;;24.00;99.90;;;;;;5084289;28;19920;-75
2023/09/16 11:03:44;;;;;;;;;;;24.00;99.90;;;;;;5088636;28;19925;-75
2023/09/16 11:06:11;;;;;;;;;;;24.00;99.90;;;;;;5083491;28;20187;-75
2023/09/16 11:08:38;;;;;;;;;;;24.10;99.90;;;;;;5083841;28;19979;-76
2023/09/16 11:11:06;;;;;;;;;;;24.20;99.90;;;;;;5085068;28;19927;-73
2023/09/16 11:13:32;;;;;;;;;;;24.30;99.90;;;;;;5082013;28;20276;-75
2023/09/16 11:15:59;;;;;;;;;;;24.40;99.90;;;;;;5083208;28;20118;-75
2023/09/16 11:18:26;;;;;;;;;;;24.40;99.90;;;;;;5082094;28;19928;-75
2023/09/16 11:20:53;;;;;;;;;;;24.40;99.90;;;;;;5087178;28;19927;-76
2023/09/16 11:23:20;;;;;;;;;;;24.50;99.90;;;;;;5084339;28;19951;-76
2023/09/16 11:25:48;;;;;;;;;;;24.50;99.90;;;;;;5082863;28;19956;-75
2023/09/16 11:28:19;;;;;;;;;;;24.60;99.90;;;;;;5083354;28;19995;-75
2023/09/16 11:30:46;;;;;;;;;;;24.70;99.90;;;;;;5079957;28;19928;-74
2023/09/16 11:33:26;;;;;;;;;;;24.80;99.90;;;;;;5085955;28;19924;-73
2023/09/16 11:36:11;;;;;;;;;;;24.80;99.90;;;;;;5081135;28;20281;-75
2023/09/16 11:38:38;;;;;;;;;;;25.00;99.90;;;;;;5076383;28;20221;-74
2023/09/16 11:41:09;;;;;;;;;;;25.20;99.90;;;;;;5081754;28;19998;-75
2023/09/16 11:43:37;;;;;;;;;;;25.40;99.90;;;;;;5086343;28;19970;-76
2023/09/16 11:46:03;;;;;;;;;;;25.60;99.90;;;;;;5092499;28;19955;-77
2023/09/16 11:48:36;;;;;;;;;;;25.60;99.90;;;;;;5085523;28;19952;-76
2023/09/16 11:51:03;;;;;;;;;;;25.70;99.90;;;;;;5082809;28;19956;-76
2023/09/16 11:53:30;;;;;;;;;;;25.60;99.90;;;;;;5083228;28;19992;-74
2023/09/16 11:55:57;;;;;;;;;;;25.60;99.90;;;;;;5082659;28;19920;-76
2023/09/16 11:58:23;;;;;;;;;;;25.70;99.90;;;;;;5080333;28;20196;-77
2023/09/16 12:00:51;;;;;;;;;;;25.80;99.90;;;;;;5077147;28;19935;-76
2023/09/16 12:03:18;;;;;;;;;;;25.80;99.90;;;;;;5085215;28;19983;-76
2023/09/16 12:05:45;;;;;;;;;;;26.00;99.90;;;;;;5081802;28;20177;-73
2023/09/16 12:08:12;;;;;;;;;;;26.10;99.90;;;;;;5085937;28;19970;-76
2023/09/16 12:10:38;;;;;;;;;;;26.20;99.90;;;;;;5083099;28;19967;-76
2023/09/16 12:13:05;;;;;;;;;;;26.20;99.90;;;;;;5082762;28;19951;-74
2023/09/16 12:15:32;;;;;;;;;;;26.30;99.90;;;;;;5079673;28;19981;-76
2023/09/16 12:18:00;;;;;;;;;;;26.40;99.90;;;;;;5084816;28;20211;-76
2023/09/16 12:20:27;;;;;;;;;;;26.50;99.90;;;;;;5087714;28;20147;-76
2023/09/16 12:22:54;;;;;;;;;;;26.50;99.90;;;;;;5087361;28;19920;-77
2023/09/16 12:25:20;;;;;;;;;;;26.60;99.90;;;;;;5081450;28;19928;-75
2023/09/16 12:27:47;;;;;;;;;;;26.60;99.90;;;;;;5081077;28;19952;-76
2023/09/16 12:30:14;;;;;;;;;;;26.70;99.90;;;;;;5082006;28;20121;-76
2023/09/16 12:32:50;;;;;;;;;;;26.80;99.90;;;;;;5091455;28;19963;-76
2023/09/16 12:35:18;;;;;;;;;;;26.90;99.90;;;;;;5077430;28;19940;-76
2023/09/16 12:37:44;;;;;;;;;;;27.10;99.90;;;;;;5090039;28;20009;-76
2023/09/16 12:40:12;;;;;;;;;;;27.20;99.90;;;;;;5099507;28;19927;-77
2023/09/16 12:42:38;;;;;;;;;;;27.30;99.90;;;;;;5100508;28;19929;-78
2023/09/16 12:45:07;;;;;;;;;;;27.30;99.90;;;;;;5102732;28;19920;-78
2023/09/16 12:47:33;;;;;;;;;;;27.30;99.90;;;;;;5100288;28;19992;-77
2023/09/16 12:50:00;;;;;;;;;;;27.40;99.90;;;;;;5096267;28;19928;-77
2023/09/16 12:52:28;;;;;;;;;;;27.50;99.90;;;;;;5095751;28;19928;-78
2023/09/16 12:54:55;;;;;;;;;;;27.60;99.90;;;;;;5094474;28;19920;-78
2023/09/16 12:57:24;;;;;;;;;;;27.70;99.90;;;;;;5090371;28;19924;-78
2023/09/16 12:59:59;;;;;;;;;;;27.90;99.90;;;;;;5093438;28;19951;-77
2023/09/16 13:02:25;;;;;;;;;;;28.00;99.90;;;;;;5094814;28;19972;-76
2023/09/16 13:05:07;;;;;;;;;;;28.00;99.90;;;;;;5096950;28;19925;-76
2023/09/16 13:07:35;;;;;;;;;;;28.10;99.90;;;;;;5090040;28;20245;-79
2023/09/16 13:10:02;;;;;;;;;;;28.30;99.90;;;;;;5088694;28;20256;-79
2023/09/16 13:12:30;;;;;;;;;;;28.40;99.90;;;;;;5092460;28;19975;-79
2023/09/16 13:14:57;;;;;;;;;;;28.30;99.90;;;;;;5083936;28;19920;-75
2023/09/16 13:17:24;;;;;;;;;;;28.40;99.90;;;;;;5077418;28;19978;-75
2023/09/16 13:19:51;;;;;;;;;;;28.40;99.90;;;;;;5085150;28;20282;-74
2023/09/16 13:22:18;;;;;;;;;;;28.50;99.90;;;;;;5081772;28;19963;-77
2023/09/16 13:24:46;;;;;;;;;;;28.70;99.90;;;;;;5082390;28;19920;-76
2023/09/16 13:27:16;;;;;;;;;;;28.70;99.90;;;;;;5080919;28;19984;-76
2023/09/16 13:29:43;;;;;;;;;;;28.70;99.90;;;;;;5083485;28;19991;-75
2023/09/16 13:32:10;;;;;;;;;;;28.70;99.90;;;;;;5077529;28;19920;-77
2023/09/16 13:34:41;;;;;;;;;;;28.80;99.90;;;;;;5084970;28;19927;-76
2023/09/16 13:37:07;;;;;;;;;;;28.90;99.90;;;;;;5085462;28;19993;-75
2023/09/16 13:39:41;;;;;;;;;;;29.00;99.90;;;;;;5086748;28;19928;-75
2023/09/16 13:42:09;;;;;;;;;;;29.30;99.90;;;;;;5085825;28;19983;-76
2023/09/16 13:44:35;;;;;;;;;;;29.50;99.90;;;;;;5080067;28;20170;-75
2023/09/16 13:47:03;;;;;;;;;;;29.70;99.90;;;;;;5085176;28;19928;-76
2023/09/16 13:49:30;;;;;;;;;;;29.80;99.90;;;;;;5090463;28;19958;-76
2023/09/16 13:51:56;;;;;;;;;;;30.00;99.90;;;;;;5081692;28;19921;-75
2023/09/16 13:54:23;;;;;;;;;;;30.10;99.90;;;;;;5084841;28;20113;-76
2023/09/16 13:56:50;;;;;;;;;;;30.30;99.90;;;;;;5085231;28;19920;-76
2023/09/16 13:59:18;;;;;;;;;;;30.40;99.90;;;;;;5083168;28;19928;-74
2023/09/16 14:01:44;;;;;;;;;;;30.50;99.90;;;;;;5085686;28;20012;-76
2023/09/16 14:04:11;;;;;;;;;;;30.60;99.90;;;;;;5080524;28;19927;-76
2023/09/16 14:06:37;;;;;;;;;;;30.80;99.90;;;;;;5084389;28;20139;-77
2023/09/16 14:09:04;;;;;;;;;;;30.70;99.90;;;;;;5087675;28;19920;-77
2023/09/16 14:11:31;;;;;;;;;;;30.40;99.90;;;;;;5084040;28;20206;-77
2023/09/16 14:13:57;;;;;;;;;;;30.30;99.90;;;;;;5083938;28;19983;-75
2023/09/16 14:16:25;;;;;;;;;;;30.30;99.90;;;;;;5087487;28;20031;-75
2023/09/16 14:18:52;;;;;;;;;;;30.30;99.90;;;;;;5087935;28;19974;-76